sensor_id;sensor_type;location;lat;lon;timestamp;P1;durP1;ratioP1;P2;durP2;ratioP2
20104;SDS011;10212;42.714;23.310;2023-07-31T00:00:25;5.75;;;3.22;;
20104;SDS011;10212;42.714;23.310;2023-07-31T00:10:25;4.68;;;3.70;;
20104;SDS011;10212;42.714;23.310;2023-07-31T00:20:25;4.63;;;3.60;;
20104;SDS011;10212;42.714;23.310;2023-07-31T00:30:26;4.13;;;3.70;;
20104;SDS011;10212;42.714;23.310;2023-07-31T00:40:27;4.68;;;4.07;;
20104;SDS011;10212;42.714;23.310;2023-07-31T00:50:27;5.88;;;4.68;;
20104;SDS011;10212;42.714;23.310;2023-07-31T01:00:28;8.05;;;6.50;;
20104;SDS011;10212;42.714;23.310;2023-07-31T01:10:31;11.02;;;9.32;;
20104;SDS011;10212;42.714;23.310;2023-07-31T01:20:37;13.27;;;11.67;;
20104;SDS011;10212;42.714;23.310;2023-07-31T01:30:44;16.48;;;13.82;;
20104;SDS011;10212;42.714;23.310;2023-07-31T01:40:52;17.75;;;15.10;;
20104;SDS011;10212;42.714;23.310;2023-07-31T01:50:53;20.67;;;16.95;;
20104;SDS011;10212;42.714;23.310;2023-07-31T02:00:53;22.33;;;18.00;;
20104;SDS011;10212;42.714;23.310;2023-07-31T02:10:54;24.83;;;19.85;;
20104;SDS011;10212;42.714;23.310;2023-07-31T02:20:54;25.50;;;20.25;;
20104;SDS011;10212;42.714;23.310;2023-07-31T02:41:14;28.08;;;21.73;;
20104;SDS011;10212;42.714;23.310;2023-07-31T02:51:15;26.67;;;20.98;;
20104;SDS011;10212;42.714;23.310;2023-07-31T03:01:15;27.52;;;21.17;;
20104;SDS011;10212;42.714;23.310;2023-07-31T03:11:16;27.50;;;21.63;;
20104;SDS011;10212;42.714;23.310;2023-07-31T03:21:16;29.88;;;22.85;;
20104;SDS011;10212;42.714;23.310;2023-07-31T03:31:16;29.13;;;21.45;;
20104;SDS011;10212;42.714;23.310;2023-07-31T03:41:17;29.13;;;22.63;;
20104;SDS011;10212;42.714;23.310;2023-07-31T03:51:18;29.37;;;22.30;;
20104;SDS011;10212;42.714;23.310;2023-07-31T04:01:19;28.92;;;21.67;;
20104;SDS011;10212;42.714;23.310;2023-07-31T04:11:20;29.95;;;21.77;;
20104;SDS011;10212;42.714;23.310;2023-07-31T04:21:20;33.55;;;23.13;;
20104;SDS011;10212;42.714;23.310;2023-07-31T04:31:20;28.75;;;21.58;;
20104;SDS011;10212;42.714;23.310;2023-07-31T04:41:21;28.15;;;21.17;;
20104;SDS011;10212;42.714;23.310;2023-07-31T04:51:21;31.48;;;21.80;;
20104;SDS011;10212;42.714;23.310;2023-07-31T05:01:23;27.55;;;20.77;;
20104;SDS011;10212;42.714;23.310;2023-07-31T05:11:29;26.05;;;20.35;;
20104;SDS011;10212;42.714;23.310;2023-07-31T05:21:30;25.40;;;18.48;;
20104;SDS011;10212;42.714;23.310;2023-07-31T05:31:41;24.65;;;17.15;;
20104;SDS011;10212;42.714;23.310;2023-07-31T05:51:52;13.95;;;11.40;;
20104;SDS011;10212;42.714;23.310;2023-07-31T06:01:52;11.80;;;9.73;;
20104;SDS011;10212;42.714;23.310;2023-07-31T06:11:53;10.82;;;8.60;;
20104;SDS011;10212;42.714;23.310;2023-07-31T06:21:53;7.93;;;7.00;;
20104;SDS011;10212;42.714;23.310;2023-07-31T06:31:54;7.20;;;6.50;;
20104;SDS011;10212;42.714;23.310;2023-07-31T06:41:54;7.75;;;6.35;;
20104;SDS011;10212;42.714;23.310;2023-07-31T06:51:55;7.90;;;5.50;;
20104;SDS011;10212;42.714;23.310;2023-07-31T07:01:55;7.93;;;5.20;;
20104;SDS011;10212;42.714;23.310;2023-07-31T07:11:55;5.13;;;4.55;;
20104;SDS011;10212;42.714;23.310;2023-07-31T07:21:56;5.78;;;4.72;;
20104;SDS011;10212;42.714;23.310;2023-07-31T07:31:56;7.43;;;4.60;;
20104;SDS011;10212;42.714;23.310;2023-07-31T07:41:57;5.25;;;4.32;;
20104;SDS011;10212;42.714;23.310;2023-07-31T07:51:57;4.18;;;3.78;;
20104;SDS011;10212;42.714;23.310;2023-07-31T08:01:57;4.20;;;3.67;;
20104;SDS011;10212;42.714;23.310;2023-07-31T08:11:58;6.00;;;3.80;;
20104;SDS011;10212;42.714;23.310;2023-07-31T08:22:02;5.30;;;3.78;;
20104;SDS011;10212;42.714;23.310;2023-07-31T08:32:03;5.63;;;3.40;;
20104;SDS011;10212;42.714;23.310;2023-07-31T08:42:04;5.40;;;3.45;;
20104;SDS011;10212;42.714;23.310;2023-07-31T08:52:07;4.05;;;3.50;;
20104;SDS011;10212;42.714;23.310;2023-07-31T09:02:26;3.55;;;2.88;;
20104;SDS011;10212;42.714;23.310;2023-07-31T09:12:34;3.60;;;3.30;;
20104;SDS011;10212;42.714;23.310;2023-07-31T09:22:36;5.03;;;3.63;;
20104;SDS011;10212;42.714;23.310;2023-07-31T09:32:36;3.65;;;3.13;;
20104;SDS011;10212;42.714;23.310;2023-07-31T09:42:38;4.00;;;3.10;;
20104;SDS011;10212;42.714;23.310;2023-07-31T09:52:38;3.85;;;2.60;;
20104;SDS011;10212;42.714;23.310;2023-07-31T10:02:39;2.72;;;2.30;;
20104;SDS011;10212;42.714;23.310;2023-07-31T10:12:39;2.60;;;2.25;;
20104;SDS011;10212;42.714;23.310;2023-07-31T10:22:40;3.50;;;2.50;;
20104;SDS011;10212;42.714;23.310;2023-07-31T10:32:41;3.78;;;2.70;;
20104;SDS011;10212;42.714;23.310;2023-07-31T10:42:50;3.55;;;2.45;;
20104;SDS011;10212;42.714;23.310;2023-07-31T10:52:55;2.40;;;1.92;;
20104;SDS011;10212;42.714;23.310;2023-07-31T11:03:07;3.47;;;2.10;;
20104;SDS011;10212;42.714;23.310;2023-07-31T11:13:10;3.83;;;2.00;;
20104;SDS011;10212;42.714;23.310;2023-07-31T11:23:11;2.88;;;2.03;;
20104;SDS011;10212;42.714;23.310;2023-07-31T11:33:12;3.58;;;2.10;;
20104;SDS011;10212;42.714;23.310;2023-07-31T11:43:13;4.47;;;3.35;;
20104;SDS011;10212;42.714;23.310;2023-07-31T11:53:18;3.60;;;2.90;;
20104;SDS011;10212;42.714;23.310;2023-07-31T12:03:22;6.03;;;4.20;;
20104;SDS011;10212;42.714;23.310;2023-07-31T12:13:23;5.68;;;4.85;;
20104;SDS011;10212;42.714;23.310;2023-07-31T12:23:32;6.78;;;5.07;;
20104;SDS011;10212;42.714;23.310;2023-07-31T12:33:34;8.90;;;4.68;;
20104;SDS011;10212;42.714;23.310;2023-07-31T12:43:36;6.05;;;5.53;;
20104;SDS011;10212;42.714;23.310;2023-07-31T12:53:38;9.35;;;5.38;;
20104;SDS011;10212;42.714;23.310;2023-07-31T13:03:39;8.15;;;6.00;;
20104;SDS011;10212;42.714;23.310;2023-07-31T13:13:39;5.18;;;4.68;;
20104;SDS011;10212;42.714;23.310;2023-07-31T13:23:39;6.25;;;4.85;;
20104;SDS011;10212;42.714;23.310;2023-07-31T13:33:40;6.13;;;4.80;;
20104;SDS011;10212;42.714;23.310;2023-07-31T13:43:40;5.72;;;4.60;;
20104;SDS011;10212;42.714;23.310;2023-07-31T13:53:41;6.30;;;4.27;;
20104;SDS011;10212;42.714;23.310;2023-07-31T14:03:41;7.38;;;4.80;;
20104;SDS011;10212;42.714;23.310;2023-07-31T14:13:41;5.85;;;4.50;;
20104;SDS011;10212;42.714;23.310;2023-07-31T14:23:42;5.75;;;3.95;;
20104;SDS011;10212;42.714;23.310;2023-07-31T14:33:42;4.75;;;4.35;;
20104;SDS011;10212;42.714;23.310;2023-07-31T14:43:43;4.03;;;3.63;;
20104;SDS011;10212;42.714;23.310;2023-07-31T14:53:43;4.57;;;4.00;;
20104;SDS011;10212;42.714;23.310;2023-07-31T15:03:43;5.07;;;3.63;;
20104;SDS011;10212;42.714;23.310;2023-07-31T15:13:44;3.72;;;2.88;;
20104;SDS011;10212;42.714;23.310;2023-07-31T15:23:44;4.18;;;2.88;;
20104;SDS011;10212;42.714;23.310;2023-07-31T15:33:45;4.75;;;2.80;;
20104;SDS011;10212;42.714;23.310;2023-07-31T15:43:45;3.10;;;2.47;;
20104;SDS011;10212;42.714;23.310;2023-07-31T15:53:46;5.18;;;2.08;;
20104;SDS011;10212;42.714;23.310;2023-07-31T16:03:46;4.30;;;2.30;;
20104;SDS011;10212;42.714;23.310;2023-07-31T16:13:47;2.90;;;1.70;;
20104;SDS011;10212;42.714;23.310;2023-07-31T16:23:47;4.28;;;2.20;;
20104;SDS011;10212;42.714;23.310;2023-07-31T16:33:48;2.08;;;1.83;;
20104;SDS011;10212;42.714;23.310;2023-07-31T16:43:49;1.75;;;1.65;;
20104;SDS011;10212;42.714;23.310;2023-07-31T16:53:49;2.87;;;2.10;;
20104;SDS011;10212;42.714;23.310;2023-07-31T17:03:49;1.83;;;1.70;;
20104;SDS011;10212;42.714;23.310;2023-07-31T17:13:50;2.42;;;1.85;;
20104;SDS011;10212;42.714;23.310;2023-07-31T17:23:51;3.70;;;1.93;;
20104;SDS011;10212;42.714;23.310;2023-07-31T17:33:51;2.53;;;1.80;;
20104;SDS011;10212;42.714;23.310;2023-07-31T17:43:51;3.25;;;2.65;;
20104;SDS011;10212;42.714;23.310;2023-07-31T17:53:52;3.10;;;2.90;;
20104;SDS011;10212;42.714;23.310;2023-07-31T18:03:52;3.53;;;2.90;;
20104;SDS011;10212;42.714;23.310;2023-07-31T18:24:49;4.38;;;2.40;;
20104;SDS011;10212;42.714;23.310;2023-07-31T18:34:50;4.93;;;2.60;;
20104;SDS011;10212;42.714;23.310;2023-07-31T18:44:50;3.00;;;2.35;;
20104;SDS011;10212;42.714;23.310;2023-07-31T18:54:51;2.47;;;2.13;;
20104;SDS011;10212;42.714;23.310;2023-07-31T19:04:51;2.60;;;2.40;;
20104;SDS011;10212;42.714;23.310;2023-07-31T19:14:51;3.30;;;2.40;;
20104;SDS011;10212;42.714;23.310;2023-07-31T19:24:52;2.88;;;2.50;;
20104;SDS011;10212;42.714;23.310;2023-07-31T19:34:52;3.10;;;2.80;;
20104;SDS011;10212;42.714;23.310;2023-07-31T19:44:53;11.67;;;7.63;;
20104;SDS011;10212;42.714;23.310;2023-07-31T19:54:53;6.57;;;3.78;;
20104;SDS011;10212;42.714;23.310;2023-07-31T20:04:53;3.55;;;2.60;;
20104;SDS011;10212;42.714;23.310;2023-07-31T20:14:54;5.25;;;3.47;;
20104;SDS011;10212;42.714;23.310;2023-07-31T20:24:54;2.47;;;2.28;;
20104;SDS011;10212;42.714;23.310;2023-07-31T20:34:55;4.47;;;3.10;;
20104;SDS011;10212;42.714;23.310;2023-07-31T20:44:55;5.30;;;3.28;;
20104;SDS011;10212;42.714;23.310;2023-07-31T20:54:55;5.05;;;2.25;;
20104;SDS011;10212;42.714;23.310;2023-07-31T21:04:56;2.53;;;2.33;;
20104;SDS011;10212;42.714;23.310;2023-07-31T21:14:56;4.05;;;2.30;;
20104;SDS011;10212;42.714;23.310;2023-07-31T21:24:57;2.58;;;2.30;;
20104;SDS011;10212;42.714;23.310;2023-07-31T21:34:57;4.80;;;2.72;;
20104;SDS011;10212;42.714;23.310;2023-07-31T21:44:57;4.18;;;2.80;;
20104;SDS011;10212;42.714;23.310;2023-07-31T21:54:58;2.70;;;2.47;;
20104;SDS011;10212;42.714;23.310;2023-07-31T22:04:58;2.97;;;2.67;;
20104;SDS011;10212;42.714;23.310;2023-07-31T22:14:58;2.45;;;2.13;;
20104;SDS011;10212;42.714;23.310;2023-07-31T22:24:59;2.58;;;2.30;;
20104;SDS011;10212;42.714;23.310;2023-07-31T22:34:59;3.33;;;2.28;;
20104;SDS011;10212;42.714;23.310;2023-07-31T22:44:59;3.65;;;1.85;;
20104;SDS011;10212;42.714;23.310;2023-07-31T22:55:00;2.20;;;2.00;;
20104;SDS011;10212;42.714;23.310;2023-07-31T23:05:00;2.83;;;2.08;;
20104;SDS011;10212;42.714;23.310;2023-07-31T23:15:00;3.30;;;2.28;;
20104;SDS011;10212;42.714;23.310;2023-07-31T23:25:01;2.30;;;2.10;;
20104;SDS011;10212;42.714;23.310;2023-07-31T23:35:01;2.28;;;2.08;;
20104;SDS011;10212;42.714;23.310;2023-07-31T23:45:01;3.00;;;2.13;;
20104;SDS011;10212;42.714;23.310;2023-07-31T23:55:02;2.45;;;2.08;;
